sensor_id;sensor_type;location;lat;lon;timestamp;P1;durP1;ratioP1;P2;durP2;ratioP2
44774;SDS011;31340;51.402;0.016;2023-03-01T00:01:18;27.17;;;13.07;;
44774;SDS011;31340;51.402;0.016;2023-03-01T00:03:47;20.60;;;14.00;;
44774;SDS011;31340;51.402;0.016;2023-03-01T00:06:15;23.95;;;13.75;;
44774;SDS011;31340;51.402;0.016;2023-03-01T00:08:43;22.02;;;13.63;;
44774;SDS011;31340;51.402;0.016;2023-03-01T00:11:16;25.23;;;14.23;;
44774;SDS011;31340;51.402;0.016;2023-03-01T00:13:46;23.80;;;14.48;;
44774;SDS011;31340;51.402;0.016;2023-03-01T00:16:16;25.92;;;14.90;;
44774;SDS011;31340;51.402;0.016;2023-03-01T00:18:47;26.63;;;14.85;;
44774;SDS011;31340;51.402;0.016;2023-03-01T00:21:15;23.65;;;15.65;;
44774;SDS011;31340;51.402;0.016;2023-03-01T00:23:42;25.45;;;15.70;;
44774;SDS011;31340;51.402;0.016;2023-03-01T00:26:12;23.45;;;15.82;;
44774;SDS011;31340;51.402;0.016;2023-03-01T00:28:42;25.77;;;15.20;;
44774;SDS011;31340;51.402;0.016;2023-03-01T00:31:11;25.08;;;15.27;;
44774;SDS011;31340;51.402;0.016;2023-03-01T00:33:41;22.05;;;14.13;;
44774;SDS011;31340;51.402;0.016;2023-03-01T00:36:10;23.27;;;14.88;;
44774;SDS011;31340;51.402;0.016;2023-03-01T00:38:41;23.23;;;14.43;;
44774;SDS011;31340;51.402;0.016;2023-03-01T00:41:14;23.60;;;14.15;;
44774;SDS011;31340;51.402;0.016;2023-03-01T00:43:43;27.38;;;15.57;;
44774;SDS011;31340;51.402;0.016;2023-03-01T00:46:16;23.50;;;14.95;;
44774;SDS011;31340;51.402;0.016;2023-03-01T00:48:48;23.95;;;15.43;;
44774;SDS011;31340;51.402;0.016;2023-03-01T00:51:17;25.05;;;15.60;;
44774;SDS011;31340;51.402;0.016;2023-03-01T00:53:56;23.67;;;15.52;;
44774;SDS011;31340;51.402;0.016;2023-03-01T00:56:26;25.85;;;16.38;;
44774;SDS011;31340;51.402;0.016;2023-03-01T00:58:54;26.38;;;14.98;;
44774;SDS011;31340;51.402;0.016;2023-03-01T01:01:25;24.77;;;15.10;;
44774;SDS011;31340;51.402;0.016;2023-03-01T01:06:36;26.92;;;16.17;;
44774;SDS011;31340;51.402;0.016;2023-03-01T01:09:07;27.30;;;15.48;;
44774;SDS011;31340;51.402;0.016;2023-03-01T01:11:37;27.77;;;14.50;;
44774;SDS011;31340;51.402;0.016;2023-03-01T01:14:04;27.42;;;15.60;;
44774;SDS011;31340;51.402;0.016;2023-03-01T01:16:32;26.05;;;16.35;;
44774;SDS011;31340;51.402;0.016;2023-03-01T01:19:00;27.38;;;15.10;;
44774;SDS011;31340;51.402;0.016;2023-03-01T01:21:28;28.70;;;16.23;;
44774;SDS011;31340;51.402;0.016;2023-03-01T01:23:56;33.20;;;16.13;;
44774;SDS011;31340;51.402;0.016;2023-03-01T01:26:26;28.05;;;16.83;;
44774;SDS011;31340;51.402;0.016;2023-03-01T01:28:58;24.23;;;15.10;;
44774;SDS011;31340;51.402;0.016;2023-03-01T01:31:27;27.63;;;15.18;;
44774;SDS011;31340;51.402;0.016;2023-03-01T01:33:55;28.00;;;16.35;;
44774;SDS011;31340;51.402;0.016;2023-03-01T01:36:23;28.10;;;15.88;;
44774;SDS011;31340;51.402;0.016;2023-03-01T01:38:51;30.17;;;17.23;;
44774;SDS011;31340;51.402;0.016;2023-03-01T01:41:20;25.80;;;15.20;;
44774;SDS011;31340;51.402;0.016;2023-03-01T01:44:08;26.13;;;15.38;;
44774;SDS011;31340;51.402;0.016;2023-03-01T01:46:39;25.53;;;16.07;;
44774;SDS011;31340;51.402;0.016;2023-03-01T01:49:16;26.05;;;16.67;;
44774;SDS011;31340;51.402;0.016;2023-03-01T01:51:45;28.35;;;17.02;;
44774;SDS011;31340;51.402;0.016;2023-03-01T01:54:19;28.92;;;16.83;;
44774;SDS011;31340;51.402;0.016;2023-03-01T01:56:55;25.98;;;16.65;;
44774;SDS011;31340;51.402;0.016;2023-03-01T01:59:26;30.38;;;16.42;;
44774;SDS011;31340;51.402;0.016;2023-03-01T02:01:57;27.55;;;15.13;;
44774;SDS011;31340;51.402;0.016;2023-03-01T02:04:29;32.42;;;18.00;;
44774;SDS011;31340;51.402;0.016;2023-03-01T02:07:00;31.33;;;17.55;;
44774;SDS011;31340;51.402;0.016;2023-03-01T02:09:31;31.52;;;17.40;;
44774;SDS011;31340;51.402;0.016;2023-03-01T02:12:01;30.03;;;18.23;;
44774;SDS011;31340;51.402;0.016;2023-03-01T02:14:31;32.00;;;17.90;;
44774;SDS011;31340;51.402;0.016;2023-03-01T02:16:59;33.30;;;18.13;;
44774;SDS011;31340;51.402;0.016;2023-03-01T02:22:25;30.33;;;17.45;;
44774;SDS011;31340;51.402;0.016;2023-03-01T02:25:12;34.83;;;19.67;;
44774;SDS011;31340;51.402;0.016;2023-03-01T02:30:20;33.80;;;19.10;;
44774;SDS011;31340;51.402;0.016;2023-03-01T02:32:49;33.45;;;18.80;;
44774;SDS011;31340;51.402;0.016;2023-03-01T02:35:20;39.38;;;20.92;;
44774;SDS011;31340;51.402;0.016;2023-03-01T02:37:48;29.60;;;17.35;;
44774;SDS011;31340;51.402;0.016;2023-03-01T02:42:50;29.75;;;17.15;;
44774;SDS011;31340;51.402;0.016;2023-03-01T02:45:20;34.58;;;18.92;;
44774;SDS011;31340;51.402;0.016;2023-03-01T02:47:48;30.80;;;17.70;;
44774;SDS011;31340;51.402;0.016;2023-03-01T02:50:22;33.20;;;18.52;;
44774;SDS011;31340;51.402;0.016;2023-03-01T02:53:08;27.20;;;18.00;;
44774;SDS011;31340;51.402;0.016;2023-03-01T02:55:43;31.73;;;17.88;;
44774;SDS011;31340;51.402;0.016;2023-03-01T02:58:12;28.88;;;17.88;;
44774;SDS011;31340;51.402;0.016;2023-03-01T03:00:41;32.75;;;19.42;;
44774;SDS011;31340;51.402;0.016;2023-03-01T03:03:16;33.40;;;18.83;;
44774;SDS011;31340;51.402;0.016;2023-03-01T03:05:46;32.30;;;17.52;;
44774;SDS011;31340;51.402;0.016;2023-03-01T03:08:15;29.30;;;16.98;;
44774;SDS011;31340;51.402;0.016;2023-03-01T03:10:52;29.52;;;17.80;;
44774;SDS011;31340;51.402;0.016;2023-03-01T03:13:20;33.03;;;18.17;;
44774;SDS011;31340;51.402;0.016;2023-03-01T03:15:50;34.37;;;16.90;;
44774;SDS011;31340;51.402;0.016;2023-03-01T03:18:17;26.85;;;14.38;;
44774;SDS011;31340;51.402;0.016;2023-03-01T03:20:45;24.60;;;14.55;;
44774;SDS011;31340;51.402;0.016;2023-03-01T03:23:13;25.98;;;13.82;;
44774;SDS011;31340;51.402;0.016;2023-03-01T03:25:41;21.98;;;12.38;;
44774;SDS011;31340;51.402;0.016;2023-03-01T03:28:08;17.25;;;10.52;;
44774;SDS011;31340;51.402;0.016;2023-03-01T03:30:39;15.88;;;7.20;;
44774;SDS011;31340;51.402;0.016;2023-03-01T03:33:08;12.77;;;5.90;;
44774;SDS011;31340;51.402;0.016;2023-03-01T03:35:45;17.00;;;5.60;;
44774;SDS011;31340;51.402;0.016;2023-03-01T03:38:15;10.15;;;4.65;;
44774;SDS011;31340;51.402;0.016;2023-03-01T03:41:02;14.32;;;5.35;;
44774;SDS011;31340;51.402;0.016;2023-03-01T03:43:32;10.25;;;4.80;;
44774;SDS011;31340;51.402;0.016;2023-03-01T03:46:02;10.10;;;4.35;;
44774;SDS011;31340;51.402;0.016;2023-03-01T03:51:03;9.43;;;4.60;;
44774;SDS011;31340;51.402;0.016;2023-03-01T03:56:02;9.50;;;4.32;;
44774;SDS011;31340;51.402;0.016;2023-03-01T03:58:32;12.23;;;4.88;;
44774;SDS011;31340;51.402;0.016;2023-03-01T04:01:00;9.20;;;4.68;;
44774;SDS011;31340;51.402;0.016;2023-03-01T04:03:28;12.65;;;4.68;;
44774;SDS011;31340;51.402;0.016;2023-03-01T04:05:57;13.82;;;4.57;;
44774;SDS011;31340;51.402;0.016;2023-03-01T04:08:26;9.32;;;4.05;;
44774;SDS011;31340;51.402;0.016;2023-03-01T04:11:01;10.00;;;4.30;;
44774;SDS011;31340;51.402;0.016;2023-03-01T04:13:48;12.50;;;4.05;;
44774;SDS011;31340;51.402;0.016;2023-03-01T04:16:16;11.77;;;4.53;;
44774;SDS011;31340;51.402;0.016;2023-03-01T04:18:45;8.80;;;4.05;;
44774;SDS011;31340;51.402;0.016;2023-03-01T04:21:12;9.68;;;3.60;;
44774;SDS011;31340;51.402;0.016;2023-03-01T04:23:41;10.90;;;3.88;;
44774;SDS011;31340;51.402;0.016;2023-03-01T04:26:08;8.45;;;3.80;;
44774;SDS011;31340;51.402;0.016;2023-03-01T04:28:37;11.10;;;3.78;;
44774;SDS011;31340;51.402;0.016;2023-03-01T04:33:53;5.57;;;3.20;;
44774;SDS011;31340;51.402;0.016;2023-03-01T04:36:26;11.18;;;3.83;;
44774;SDS011;31340;51.402;0.016;2023-03-01T04:38:55;6.70;;;3.42;;
44774;SDS011;31340;51.402;0.016;2023-03-01T04:41:23;8.80;;;3.90;;
44774;SDS011;31340;51.402;0.016;2023-03-01T04:43:52;6.47;;;3.88;;
44774;SDS011;31340;51.402;0.016;2023-03-01T04:46:20;8.90;;;3.67;;
44774;SDS011;31340;51.402;0.016;2023-03-01T04:48:47;6.97;;;3.80;;
44774;SDS011;31340;51.402;0.016;2023-03-01T04:51:15;7.43;;;3.80;;
44774;SDS011;31340;51.402;0.016;2023-03-01T04:53:43;6.25;;;3.60;;
44774;SDS011;31340;51.402;0.016;2023-03-01T04:56:11;8.40;;;3.63;;
44774;SDS011;31340;51.402;0.016;2023-03-01T04:58:41;6.47;;;3.70;;
44774;SDS011;31340;51.402;0.016;2023-03-01T05:01:12;8.38;;;3.85;;
44774;SDS011;31340;51.402;0.016;2023-03-01T05:03:49;9.05;;;3.97;;
44774;SDS011;31340;51.402;0.016;2023-03-01T05:06:18;9.30;;;4.78;;
44774;SDS011;31340;51.402;0.016;2023-03-01T05:08:46;7.03;;;3.40;;
44774;SDS011;31340;51.402;0.016;2023-03-01T05:11:14;7.22;;;3.70;;
44774;SDS011;31340;51.402;0.016;2023-03-01T05:13:41;5.90;;;3.47;;
44774;SDS011;31340;51.402;0.016;2023-03-01T05:16:09;8.77;;;3.45;;
44774;SDS011;31340;51.402;0.016;2023-03-01T05:18:39;5.50;;;3.22;;
44774;SDS011;31340;51.402;0.016;2023-03-01T05:21:08;10.02;;;4.45;;
44774;SDS011;31340;51.402;0.016;2023-03-01T05:23:38;10.45;;;3.20;;
44774;SDS011;31340;51.402;0.016;2023-03-01T05:26:06;9.30;;;3.55;;
44774;SDS011;31340;51.402;0.016;2023-03-01T05:28:48;8.82;;;3.20;;
44774;SDS011;31340;51.402;0.016;2023-03-01T05:31:15;4.75;;;2.80;;
44774;SDS011;31340;51.402;0.016;2023-03-01T05:33:43;4.82;;;3.05;;
44774;SDS011;31340;51.402;0.016;2023-03-01T05:36:10;5.60;;;3.15;;
44774;SDS011;31340;51.402;0.016;2023-03-01T05:38:38;5.10;;;2.90;;
44774;SDS011;31340;51.402;0.016;2023-03-01T05:41:05;5.82;;;3.22;;
44774;SDS011;31340;51.402;0.016;2023-03-01T05:43:41;5.65;;;3.10;;
44774;SDS011;31340;51.402;0.016;2023-03-01T05:46:10;5.55;;;2.83;;
44774;SDS011;31340;51.402;0.016;2023-03-01T05:48:40;6.97;;;3.33;;
44774;SDS011;31340;51.402;0.016;2023-03-01T05:51:07;4.10;;;3.03;;
44774;SDS011;31340;51.402;0.016;2023-03-01T05:53:35;5.72;;;3.10;;
44774;SDS011;31340;51.402;0.016;2023-03-01T05:56:03;5.53;;;2.70;;
44774;SDS011;31340;51.402;0.016;2023-03-01T05:58:31;7.00;;;3.17;;
44774;SDS011;31340;51.402;0.016;2023-03-01T06:00:58;6.68;;;3.80;;
44774;SDS011;31340;51.402;0.016;2023-03-01T06:03:26;8.63;;;3.35;;
44774;SDS011;31340;51.402;0.016;2023-03-01T06:05:57;5.28;;;3.35;;
44774;SDS011;31340;51.402;0.016;2023-03-01T06:08:25;6.68;;;2.88;;
44774;SDS011;31340;51.402;0.016;2023-03-01T06:10:54;8.90;;;3.10;;
44774;SDS011;31340;51.402;0.016;2023-03-01T06:13:22;5.03;;;3.17;;
44774;SDS011;31340;51.402;0.016;2023-03-01T06:15:50;5.75;;;3.22;;
44774;SDS011;31340;51.402;0.016;2023-03-01T06:18:18;5.65;;;3.20;;
44774;SDS011;31340;51.402;0.016;2023-03-01T06:20:52;6.30;;;3.05;;
44774;SDS011;31340;51.402;0.016;2023-03-01T06:23:21;4.45;;;3.10;;
44774;SDS011;31340;51.402;0.016;2023-03-01T06:25:49;8.77;;;3.22;;
44774;SDS011;31340;51.402;0.016;2023-03-01T06:28:16;5.70;;;3.13;;
44774;SDS011;31340;51.402;0.016;2023-03-01T06:30:44;6.10;;;3.15;;
44774;SDS011;31340;51.402;0.016;2023-03-01T06:33:12;9.85;;;3.20;;
44774;SDS011;31340;51.402;0.016;2023-03-01T06:35:39;4.00;;;2.97;;
44774;SDS011;31340;51.402;0.016;2023-03-01T06:38:07;5.00;;;3.30;;
44774;SDS011;31340;51.402;0.016;2023-03-01T06:40:35;6.55;;;3.55;;
44774;SDS011;31340;51.402;0.016;2023-03-01T06:43:02;5.88;;;3.22;;
44774;SDS011;31340;51.402;0.016;2023-03-01T06:45:30;7.93;;;3.38;;
44774;SDS011;31340;51.402;0.016;2023-03-01T06:48:01;5.70;;;3.85;;
44774;SDS011;31340;51.402;0.016;2023-03-01T06:50:32;6.13;;;3.92;;
44774;SDS011;31340;51.402;0.016;2023-03-01T06:53:00;6.82;;;3.53;;
44774;SDS011;31340;51.402;0.016;2023-03-01T06:55:29;5.88;;;3.85;;
44774;SDS011;31340;51.402;0.016;2023-03-01T06:57:57;8.02;;;4.90;;
44774;SDS011;31340;51.402;0.016;2023-03-01T07:00:26;10.13;;;4.32;;
44774;SDS011;31340;51.402;0.016;2023-03-01T07:02:54;10.68;;;5.10;;
44774;SDS011;31340;51.402;0.016;2023-03-01T07:05:24;9.10;;;5.03;;
44774;SDS011;31340;51.402;0.016;2023-03-01T07:07:52;9.55;;;5.50;;
44774;SDS011;31340;51.402;0.016;2023-03-01T07:10:20;8.27;;;5.28;;
44774;SDS011;31340;51.402;0.016;2023-03-01T07:12:48;10.35;;;5.78;;
44774;SDS011;31340;51.402;0.016;2023-03-01T07:15:15;12.73;;;5.55;;
44774;SDS011;31340;51.402;0.016;2023-03-01T07:17:43;8.40;;;5.22;;
44774;SDS011;31340;51.402;0.016;2023-03-01T07:20:11;12.23;;;5.10;;
44774;SDS011;31340;51.402;0.016;2023-03-01T07:22:39;8.68;;;4.93;;
44774;SDS011;31340;51.402;0.016;2023-03-01T07:25:09;9.93;;;5.07;;
44774;SDS011;31340;51.402;0.016;2023-03-01T07:27:37;7.68;;;4.82;;
44774;SDS011;31340;51.402;0.016;2023-03-01T07:30:04;12.48;;;4.65;;
44774;SDS011;31340;51.402;0.016;2023-03-01T07:32:32;14.02;;;7.03;;
44774;SDS011;31340;51.402;0.016;2023-03-01T07:35:00;8.75;;;5.00;;
44774;SDS011;31340;51.402;0.016;2023-03-01T07:37:28;6.80;;;4.07;;
44774;SDS011;31340;51.402;0.016;2023-03-01T07:39:55;9.25;;;3.92;;
44774;SDS011;31340;51.402;0.016;2023-03-01T07:42:22;6.63;;;4.20;;
44774;SDS011;31340;51.402;0.016;2023-03-01T07:44:50;8.35;;;4.25;;
44774;SDS011;31340;51.402;0.016;2023-03-01T07:47:17;14.10;;;4.30;;
44774;SDS011;31340;51.402;0.016;2023-03-01T07:49:45;11.48;;;4.05;;
44774;SDS011;31340;51.402;0.016;2023-03-01T07:52:12;8.40;;;3.75;;
44774;SDS011;31340;51.402;0.016;2023-03-01T07:54:42;10.88;;;4.00;;
44774;SDS011;31340;51.402;0.016;2023-03-01T07:57:11;11.45;;;4.13;;
44774;SDS011;31340;51.402;0.016;2023-03-01T07:59:38;8.73;;;3.80;;
44774;SDS011;31340;51.402;0.016;2023-03-01T08:02:06;13.10;;;4.70;;
44774;SDS011;31340;51.402;0.016;2023-03-01T08:04:35;11.70;;;5.47;;
44774;SDS011;31340;51.402;0.016;2023-03-01T08:07:04;9.93;;;4.15;;
44774;SDS011;31340;51.402;0.016;2023-03-01T08:09:34;10.98;;;4.55;;
44774;SDS011;31340;51.402;0.016;2023-03-01T08:12:04;9.98;;;4.50;;
44774;SDS011;31340;51.402;0.016;2023-03-01T08:14:32;11.18;;;4.50;;
44774;SDS011;31340;51.402;0.016;2023-03-01T08:17:00;10.77;;;4.35;;
44774;SDS011;31340;51.402;0.016;2023-03-01T08:19:29;19.20;;;4.85;;
44774;SDS011;31340;51.402;0.016;2023-03-01T08:21:57;10.57;;;4.47;;
44774;SDS011;31340;51.402;0.016;2023-03-01T08:24:26;6.88;;;4.00;;
44774;SDS011;31340;51.402;0.016;2023-03-01T08:26:54;13.00;;;4.60;;
44774;SDS011;31340;51.402;0.016;2023-03-01T08:29:22;12.85;;;4.75;;
44774;SDS011;31340;51.402;0.016;2023-03-01T08:31:51;11.23;;;4.53;;
44774;SDS011;31340;51.402;0.016;2023-03-01T08:34:19;23.05;;;4.85;;
44774;SDS011;31340;51.402;0.016;2023-03-01T08:36:46;13.25;;;4.32;;
44774;SDS011;31340;51.402;0.016;2023-03-01T08:39:15;11.80;;;4.20;;
44774;SDS011;31340;51.402;0.016;2023-03-01T08:41:45;8.07;;;3.60;;
44774;SDS011;31340;51.402;0.016;2023-03-01T08:44:14;7.90;;;4.10;;
44774;SDS011;31340;51.402;0.016;2023-03-01T08:46:44;8.13;;;3.67;;
44774;SDS011;31340;51.402;0.016;2023-03-01T08:49:16;8.25;;;2.95;;
44774;SDS011;31340;51.402;0.016;2023-03-01T08:51:45;10.50;;;3.35;;
44774;SDS011;31340;51.402;0.016;2023-03-01T08:54:17;6.70;;;2.50;;
44774;SDS011;31340;51.402;0.016;2023-03-01T08:56:47;5.22;;;2.92;;
44774;SDS011;31340;51.402;0.016;2023-03-01T08:59:15;13.77;;;2.95;;
44774;SDS011;31340;51.402;0.016;2023-03-01T09:01:44;5.85;;;2.80;;
44774;SDS011;31340;51.402;0.016;2023-03-01T09:04:12;7.43;;;2.63;;
44774;SDS011;31340;51.402;0.016;2023-03-01T09:06:42;5.68;;;2.45;;
44774;SDS011;31340;51.402;0.016;2023-03-01T09:09:14;6.90;;;2.38;;
44774;SDS011;31340;51.402;0.016;2023-03-01T09:11:43;4.38;;;2.13;;
44774;SDS011;31340;51.402;0.016;2023-03-01T09:14:13;10.70;;;2.22;;
44774;SDS011;31340;51.402;0.016;2023-03-01T09:16:41;10.35;;;2.00;;
44774;SDS011;31340;51.402;0.016;2023-03-01T09:19:09;4.97;;;1.70;;
44774;SDS011;31340;51.402;0.016;2023-03-01T09:21:38;4.00;;;2.42;;
44774;SDS011;31340;51.402;0.016;2023-03-01T09:24:12;7.90;;;2.20;;
44774;SDS011;31340;51.402;0.016;2023-03-01T09:26:41;5.80;;;2.00;;
44774;SDS011;31340;51.402;0.016;2023-03-01T09:29:09;8.77;;;2.40;;
44774;SDS011;31340;51.402;0.016;2023-03-01T09:31:37;5.82;;;2.10;;
44774;SDS011;31340;51.402;0.016;2023-03-01T09:34:04;5.50;;;2.65;;
44774;SDS011;31340;51.402;0.016;2023-03-01T09:36:32;5.97;;;2.40;;
44774;SDS011;31340;51.402;0.016;2023-03-01T09:39:01;6.43;;;2.22;;
44774;SDS011;31340;51.402;0.016;2023-03-01T09:47:15;6.45;;;2.20;;
44774;SDS011;31340;51.402;0.016;2023-03-01T09:50:06;6.95;;;2.00;;
44774;SDS011;31340;51.402;0.016;2023-03-01T09:55:52;3.55;;;1.92;;
44774;SDS011;31340;51.402;0.016;2023-03-01T10:01:34;7.75;;;2.42;;
44774;SDS011;31340;51.402;0.016;2023-03-01T10:09:37;4.05;;;1.98;;
44774;SDS011;31340;51.402;0.016;2023-03-01T10:17:56;5.30;;;2.10;;
44774;SDS011;31340;51.402;0.016;2023-03-01T10:20:33;4.80;;;2.25;;
44774;SDS011;31340;51.402;0.016;2023-03-01T10:23:24;7.95;;;2.50;;
44774;SDS011;31340;51.402;0.016;2023-03-01T10:26:05;4.85;;;2.70;;
44774;SDS011;31340;51.402;0.016;2023-03-01T10:34:16;4.28;;;1.73;;
44774;SDS011;31340;51.402;0.016;2023-03-01T10:36:47;2.72;;;1.70;;
44774;SDS011;31340;51.402;0.016;2023-03-01T10:39:22;3.45;;;1.75;;
44774;SDS011;31340;51.402;0.016;2023-03-01T10:41:55;4.60;;;1.95;;
44774;SDS011;31340;51.402;0.016;2023-03-01T10:44:45;6.22;;;1.90;;
44774;SDS011;31340;51.402;0.016;2023-03-01T10:47:16;5.43;;;1.65;;
44774;SDS011;31340;51.402;0.016;2023-03-01T10:49:52;3.38;;;1.50;;
44774;SDS011;31340;51.402;0.016;2023-03-01T10:52:21;4.38;;;1.65;;
44774;SDS011;31340;51.402;0.016;2023-03-01T10:54:56;1.58;;;1.20;;
44774;SDS011;31340;51.402;0.016;2023-03-01T10:57:47;4.63;;;1.58;;
44774;SDS011;31340;51.402;0.016;2023-03-01T11:00:16;2.53;;;1.25;;
44774;SDS011;31340;51.402;0.016;2023-03-01T11:05:25;7.25;;;1.15;;
44774;SDS011;31340;51.402;0.016;2023-03-01T11:07:58;4.38;;;1.90;;
44774;SDS011;31340;51.402;0.016;2023-03-01T11:10:28;6.90;;;1.10;;
44774;SDS011;31340;51.402;0.016;2023-03-01T11:15:59;2.10;;;1.20;;
44774;SDS011;31340;51.402;0.016;2023-03-01T11:18:33;3.50;;;1.30;;
44774;SDS011;31340;51.402;0.016;2023-03-01T11:21:15;6.47;;;1.52;;
44774;SDS011;31340;51.402;0.016;2023-03-01T11:23:43;4.10;;;1.42;;
44774;SDS011;31340;51.402;0.016;2023-03-01T11:26:13;6.93;;;1.63;;
44774;SDS011;31340;51.402;0.016;2023-03-01T11:28:44;7.32;;;1.60;;
44774;SDS011;31340;51.402;0.016;2023-03-01T11:31:17;6.53;;;1.80;;
44774;SDS011;31340;51.402;0.016;2023-03-01T11:33:50;6.28;;;1.63;;
44774;SDS011;31340;51.402;0.016;2023-03-01T11:39:26;2.42;;;1.30;;
44774;SDS011;31340;51.402;0.016;2023-03-01T11:45:15;8.27;;;1.90;;
44774;SDS011;31340;51.402;0.016;2023-03-01T11:47:49;6.30;;;1.48;;
44774;SDS011;31340;51.402;0.016;2023-03-01T11:55:43;6.30;;;2.40;;
44774;SDS011;31340;51.402;0.016;2023-03-01T11:58:25;4.65;;;2.03;;
44774;SDS011;31340;51.402;0.016;2023-03-01T12:12:31;3.00;;;1.10;;
44774;SDS011;31340;51.402;0.016;2023-03-01T12:21:17;2.08;;;1.58;;
44774;SDS011;31340;51.402;0.016;2023-03-01T12:26:43;4.90;;;1.80;;
44774;SDS011;31340;51.402;0.016;2023-03-01T12:29:59;5.38;;;1.60;;
44774;SDS011;31340;51.402;0.016;2023-03-01T12:32:24;3.50;;;1.42;;
44774;SDS011;31340;51.402;0.016;2023-03-01T12:38:11;1.90;;;1.17;;
44774;SDS011;31340;51.402;0.016;2023-03-01T12:50:02;4.53;;;1.60;;
44774;SDS011;31340;51.402;0.016;2023-03-01T12:55:18;10.10;;;1.85;;
44774;SDS011;31340;51.402;0.016;2023-03-01T12:57:48;4.43;;;1.65;;
44774;SDS011;31340;51.402;0.016;2023-03-01T13:00:45;2.50;;;1.50;;
44774;SDS011;31340;51.402;0.016;2023-03-01T13:03:25;4.55;;;1.40;;
44774;SDS011;31340;51.402;0.016;2023-03-01T13:06:04;3.67;;;1.77;;
44774;SDS011;31340;51.402;0.016;2023-03-01T13:11:20;35.15;;;4.10;;
44774;SDS011;31340;51.402;0.016;2023-03-01T13:13:49;11.73;;;2.58;;
44774;SDS011;31340;51.402;0.016;2023-03-01T13:19:06;4.85;;;2.20;;
44774;SDS011;31340;51.402;0.016;2023-03-01T13:21:41;5.95;;;1.92;;
44774;SDS011;31340;51.402;0.016;2023-03-01T13:24:29;5.82;;;2.30;;
44774;SDS011;31340;51.402;0.016;2023-03-01T13:29:48;7.90;;;2.47;;
44774;SDS011;31340;51.402;0.016;2023-03-01T13:32:30;6.57;;;2.15;;
44774;SDS011;31340;51.402;0.016;2023-03-01T13:37:37;6.18;;;2.83;;
44774;SDS011;31340;51.402;0.016;2023-03-01T13:42:53;7.25;;;2.53;;
44774;SDS011;31340;51.402;0.016;2023-03-01T13:45:38;10.40;;;2.78;;
44774;SDS011;31340;51.402;0.016;2023-03-01T13:48:09;6.57;;;2.17;;
44774;SDS011;31340;51.402;0.016;2023-03-01T13:50:45;6.75;;;2.78;;
44774;SDS011;31340;51.402;0.016;2023-03-01T13:53:19;6.22;;;2.38;;
44774;SDS011;31340;51.402;0.016;2023-03-01T13:55:54;9.75;;;3.30;;
44774;SDS011;31340;51.402;0.016;2023-03-01T14:00:56;6.68;;;2.95;;
44774;SDS011;31340;51.402;0.016;2023-03-01T14:03:29;9.98;;;2.28;;
44774;SDS011;31340;51.402;0.016;2023-03-01T14:08:40;7.70;;;2.08;;
44774;SDS011;31340;51.402;0.016;2023-03-01T14:16:41;6.57;;;2.40;;
44774;SDS011;31340;51.402;0.016;2023-03-01T14:19:28;5.97;;;2.05;;
44774;SDS011;31340;51.402;0.016;2023-03-01T14:22:03;5.75;;;2.20;;
44774;SDS011;31340;51.402;0.016;2023-03-01T14:24:50;4.10;;;2.17;;
44774;SDS011;31340;51.402;0.016;2023-03-01T14:27:33;4.22;;;2.05;;
44774;SDS011;31340;51.402;0.016;2023-03-01T14:30:11;7.22;;;1.85;;
44774;SDS011;31340;51.402;0.016;2023-03-01T14:33:01;7.70;;;2.47;;
44774;SDS011;31340;51.402;0.016;2023-03-01T14:35:33;4.95;;;2.70;;
44774;SDS011;31340;51.402;0.016;2023-03-01T14:38:02;7.20;;;2.72;;
44774;SDS011;31340;51.402;0.016;2023-03-01T14:40:31;6.88;;;2.88;;
44774;SDS011;31340;51.402;0.016;2023-03-01T14:45:35;6.57;;;3.22;;
44774;SDS011;31340;51.402;0.016;2023-03-01T14:48:04;12.32;;;3.72;;
44774;SDS011;31340;51.402;0.016;2023-03-01T14:50:34;9.73;;;3.50;;
44774;SDS011;31340;51.402;0.016;2023-03-01T14:53:06;9.40;;;3.45;;
44774;SDS011;31340;51.402;0.016;2023-03-01T14:55:50;7.60;;;2.83;;
44774;SDS011;31340;51.402;0.016;2023-03-01T14:58:22;9.02;;;2.90;;
44774;SDS011;31340;51.402;0.016;2023-03-01T15:00:58;4.10;;;2.20;;
44774;SDS011;31340;51.402;0.016;2023-03-01T15:03:31;8.57;;;3.17;;
44774;SDS011;31340;51.402;0.016;2023-03-01T15:06:01;8.23;;;3.17;;
44774;SDS011;31340;51.402;0.016;2023-03-01T15:08:30;11.48;;;3.65;;
44774;SDS011;31340;51.402;0.016;2023-03-01T15:11:03;10.48;;;4.13;;
44774;SDS011;31340;51.402;0.016;2023-03-01T15:13:43;10.63;;;4.20;;
44774;SDS011;31340;51.402;0.016;2023-03-01T15:16:21;14.07;;;4.47;;
44774;SDS011;31340;51.402;0.016;2023-03-01T15:18:54;13.30;;;4.25;;
44774;SDS011;31340;51.402;0.016;2023-03-01T15:24:02;10.20;;;2.92;;
44774;SDS011;31340;51.402;0.016;2023-03-01T15:29:26;10.52;;;3.40;;
44774;SDS011;31340;51.402;0.016;2023-03-01T15:32:01;11.27;;;4.10;;
44774;SDS011;31340;51.402;0.016;2023-03-01T15:34:31;12.07;;;4.97;;
44774;SDS011;31340;51.402;0.016;2023-03-01T15:37:01;13.18;;;4.18;;
44774;SDS011;31340;51.402;0.016;2023-03-01T15:42:36;10.75;;;4.03;;
44774;SDS011;31340;51.402;0.016;2023-03-01T15:45:09;11.98;;;4.03;;
44774;SDS011;31340;51.402;0.016;2023-03-01T15:47:52;5.93;;;2.58;;
44774;SDS011;31340;51.402;0.016;2023-03-01T15:50:24;7.47;;;2.03;;
44774;SDS011;31340;51.402;0.016;2023-03-01T15:53:09;4.20;;;2.08;;
44774;SDS011;31340;51.402;0.016;2023-03-01T15:55:38;6.15;;;2.15;;
44774;SDS011;31340;51.402;0.016;2023-03-01T15:58:09;9.00;;;2.40;;
44774;SDS011;31340;51.402;0.016;2023-03-01T16:00:46;5.95;;;2.00;;
44774;SDS011;31340;51.402;0.016;2023-03-01T16:03:28;7.50;;;2.38;;
44774;SDS011;31340;51.402;0.016;2023-03-01T16:05:56;9.25;;;2.15;;
44774;SDS011;31340;51.402;0.016;2023-03-01T16:08:23;8.30;;;2.38;;
44774;SDS011;31340;51.402;0.016;2023-03-01T16:10:51;5.07;;;2.35;;
44774;SDS011;31340;51.402;0.016;2023-03-01T16:13:21;6.18;;;2.38;;
44774;SDS011;31340;51.402;0.016;2023-03-01T16:15:48;10.93;;;3.03;;
44774;SDS011;31340;51.402;0.016;2023-03-01T16:18:16;9.88;;;3.15;;
44774;SDS011;31340;51.402;0.016;2023-03-01T16:20:44;6.50;;;3.72;;
44774;SDS011;31340;51.402;0.016;2023-03-01T16:23:12;7.00;;;3.70;;
44774;SDS011;31340;51.402;0.016;2023-03-01T16:25:40;7.97;;;4.25;;
44774;SDS011;31340;51.402;0.016;2023-03-01T16:28:08;7.78;;;3.40;;
44774;SDS011;31340;51.402;0.016;2023-03-01T16:30:39;5.60;;;2.97;;
44774;SDS011;31340;51.402;0.016;2023-03-01T16:33:07;7.50;;;3.50;;
44774;SDS011;31340;51.402;0.016;2023-03-01T16:35:55;5.47;;;2.58;;
44774;SDS011;31340;51.402;0.016;2023-03-01T16:38:23;6.80;;;2.45;;
44774;SDS011;31340;51.402;0.016;2023-03-01T16:40:51;7.68;;;2.60;;
44774;SDS011;31340;51.402;0.016;2023-03-01T16:43:19;8.52;;;2.42;;
44774;SDS011;31340;51.402;0.016;2023-03-01T16:45:47;5.95;;;2.42;;
44774;SDS011;31340;51.402;0.016;2023-03-01T16:48:15;6.65;;;2.95;;
44774;SDS011;31340;51.402;0.016;2023-03-01T16:50:42;10.63;;;3.45;;
44774;SDS011;31340;51.402;0.016;2023-03-01T16:53:10;4.80;;;2.50;;
44774;SDS011;31340;51.402;0.016;2023-03-01T16:55:39;7.50;;;2.47;;
44774;SDS011;31340;51.402;0.016;2023-03-01T16:58:12;18.55;;;3.97;;
44774;SDS011;31340;51.402;0.016;2023-03-01T17:00:42;5.83;;;2.57;;
44774;SDS011;31340;51.402;0.016;2023-03-01T17:03:10;9.90;;;3.15;;
44774;SDS011;31340;51.402;0.016;2023-03-01T17:05:39;7.32;;;2.85;;
44774;SDS011;31340;51.402;0.016;2023-03-01T17:08:07;7.18;;;3.00;;
44774;SDS011;31340;51.402;0.016;2023-03-01T17:10:35;10.95;;;3.10;;
44774;SDS011;31340;51.402;0.016;2023-03-01T17:13:03;9.35;;;3.20;;
44774;SDS011;31340;51.402;0.016;2023-03-01T17:15:31;8.32;;;3.28;;
44774;SDS011;31340;51.402;0.016;2023-03-01T17:17:59;10.52;;;3.38;;